福島空港の過去48時間の天気

福島空港 (Fukushima)

現在時刻: 7/23 03:40 JST (7/22 18:40 UTC) 以下の時間は現地時間です。

過去48時間のMETAR気象情報
時間 風向 風速(m/s) 視程 気温(℃) 湿度(%) 気圧(hPa) 天気現象
22 20:00 3 10km以上 28 74 1010
22 19:00 北北西 5 10km以上 28 70 1010
22 18:00 北北西 4 10km以上 30 62 1009
22 17:00 北北西 5 10km以上 31 59 1009
22 16:00 5 10km以上 31 59 1009
22 15:00 北北西 5 10km以上 33 53 1009
22 14:00 北北西 4 10km以上 33 53 1009
22 13:00 北北西 5 10km以上 32 63 1010
22 12:00 北北西 5 10km以上 32 56 1010
22 11:00 北西 4 10km以上 32 59 1011
22 10:29 西北西 3 10km以上 32 59 1011
22 10:00 北西 2 10km以上 30 66 1011
22 09:00 北北西 3 10km以上 28 100 1012
22 08:00 北西 2 10km以上 29 84 1012
22 07:00 北北西 2 10km以上 27 100 1012
22 06:40 3 10km以上 26 100 1012
21 20:00 北北東 2 10km以上 28 79 1012
21 19:00 北北東 2 10km以上 29 70 1012
21 18:00 北北東 3 10km以上 29 70 1012
21 17:00 北北西 4 10km以上 30 62 1011
21 16:45 5 10km以上 31 59 1011
21 16:18 5 10km以上 31 62 1011
21 16:00 5 10km以上 31 66 1011
21 15:00 北北西 4 10km以上 32 59 1011
21 14:00 北西 3 10km以上 33 56 1011
21 13:00 7 10km以上 33 53 1012
21 12:00 5 10km以上 33 56 1012
21 11:00 北北西 6 10km以上 33 56 1013
21 10:49 北北西 5 10km以上 33 59 1013
21 10:00 3 10km以上 31 79 1013
21 09:00 不定 1 10km以上 28 100 1013
21 08:00 南南西 2 8000m 27 100 1013
21 07:00 南南西 2 8000m 25 100 1013
21 06:40 3 7000m 25 100 1013
RJSF 221100Z 35005KT 310V010 9999 FEW050 SCT070 BKN/// 28/23 Q1010
RJSF 221000Z 34009KT 9999 FEW050 SCT070 BKN/// 28/22 Q1010
RJSF 220900Z 33008KT 9999 FEW050 SCT070 BKN/// 30/22 Q1009
RJSF 220800Z 33010KT 9999 FEW050 BKN/// 31/22 Q1009
RJSF 220700Z 35009KT 9999 FEW040 SCT050 BKN/// 31/22 Q1009
RJSF 220600Z 33009KT 9999 SCT050 BKN/// 33/22 Q1009
RJSF 220500Z 33008KT 280V010 9999 SCT050 BKN/// 33/22 Q1009
RJSF 220400Z 34009KT 300V020 9999 FEW040 SCT050 BKN/// 32/24 Q1010
RJSF 220300Z 34009KT 300V010 9999 FEW040 SCT050 BKN/// 32/22 Q1010
RJSF 220200Z 32007KT 270V360 9999 FEW035 SCT045 BKN/// 32/23 Q1011
RJSF 220129Z 30006KT 240V010 9999 FEW040 BKN/// 32/23 Q1011 RMK 1CU040 A2987
RJSF 220100Z 31004KT 240V060 9999 FEW040 BKN/// 30/23 Q1011
RJSF 220000Z 34005KT 300V010 9999 FEW040 BKN/// 28/28 Q1012
RJSF 212300Z 32003KT 260V360 9999 FEW040 BKN/// 29/26 Q1012
RJSF 212200Z 34003KT 250V020 9999 FEW040 BKN/// 27/27 Q1012
RJSF 212140Z 36005KT 9999 FEW040 BKN/// 26/26 Q1012 RMK 1CU040 A2989
RJSF 211100Z 02003KT 350V110 9999 FEW045 BKN/// 28/24 Q1012
RJSF 211000Z 02003KT 9999 FEW045 SCT060 BKN/// 29/23 Q1012
RJSF 210900Z 02005KT 9999 SCT050 BKN070 BKN/// 29/23 Q1012
RJSF 210800Z 34007KT 9999 FEW030 BKN050 BKN/// 30/22 Q1011
RJSF 210745Z 35009KT 9999 FEW030CB BKN050 BKN/// 31/22 Q1011 RMK 1CB030 5CU050 A2987 CB 40KM S MOV UNKNOWN
RJSF 210718Z 35009KT 9999 TS SCT030 FEW030CB BKN/// 31/23 Q1011 RMK 3CU030 1CB030 A2987 FBL TS 25KM S MOV UNKNOWN
RJSF 210700Z 35009KT 9999 SCT040 BKN/// 31/24 Q1011
RJSF 210600Z 33008KT 9999 FEW040 BKN/// 32/23 Q1011
RJSF 210500Z 32006KT 280V360 9999 FEW040 BKN/// 33/23 Q1011
RJSF 210400Z 36014KT 9999 FEW050 BKN/// 33/22 Q1012
RJSF 210300Z 35010KT 320V020 9999 FEW050 BKN/// 33/23 Q1012
RJSF 210200Z 34011KT 300V020 9999 FEW050 BKN/// 33/23 Q1013
RJSF 210149Z 33010KT 300V360 9999 FEW050 BKN/// 33/24 Q1013 RMK 1CU050 A2992
RJSF 210100Z 35006KT 290V020 CAVOK 31/27 Q1013
RJSF 210000Z VRB02KT 9999 FEW050 BKN/// 28/28 Q1013
RJSF 202300Z 21003KT 160V240 8000 FEW050 BKN/// 27/27 Q1013
RJSF 202200Z 20004KT 8000 FEW008 SCT050 BKN/// 25/25 Q1013
RJSF 202140Z 19005KT 7000 FEW006 SCT050 BKN/// 25/25 Q1013 RMK 1ST006 3CU050 A2993